createdAt,value
2023-01-15T00:01:38.226Z,79.24
2023-01-15T00:06:41.998Z,79.25
2023-01-15T00:11:47.022Z,79.25
2023-01-15T00:16:52.882Z,79.54
2023-01-15T00:21:55.253Z,79.60
2023-01-15T00:27:15.954Z,79.28
2023-01-15T00:32:18.246Z,79.30
2023-01-15T00:37:20.523Z,79.30
2023-01-15T00:42:22.875Z,79.32
2023-01-15T00:47:25.263Z,79.36
2023-01-15T00:52:27.564Z,79.28
2023-01-15T00:57:29.882Z,79.17
2023-01-15T01:02:32.330Z,79.10
2023-01-15T01:07:35.692Z,79.38
2023-01-15T01:12:38.969Z,79.34
2023-01-15T01:17:41.540Z,79.31
2023-01-15T01:22:44.484Z,79.26
2023-01-15T01:27:46.873Z,79.17
2023-01-15T01:32:49.311Z,79.14
2023-01-15T01:37:52.382Z,79.29
2023-01-15T01:42:54.672Z,79.38
2023-01-15T01:48:00.982Z,79.14
2023-01-15T01:53:09.277Z,79.25
2023-01-15T01:58:12.934Z,79.09
2023-01-15T02:03:16.030Z,79.12
2023-01-15T02:08:19.093Z,79.05
2023-01-15T02:13:39.254Z,79.07
2023-01-15T02:19:30.578Z,79.27
2023-01-15T02:24:52.468Z,79.18
2023-01-15T02:30:06.990Z,79.21
2023-01-15T02:35:24.887Z,79.35
2023-01-15T02:40:28.908Z,79.00
2023-01-15T02:45:34.108Z,79.01
2023-01-15T02:50:45.990Z,79.31
2023-01-15T02:55:50.207Z,79.20
2023-01-15T03:00:57.480Z,79.21
2023-01-15T03:06:22.405Z,79.26
2023-01-15T03:11:24.969Z,78.96
2023-01-15T03:16:38.362Z,79.08
2023-01-15T03:21:47.075Z,79.26
2023-01-15T03:26:51.015Z,79.31
2023-01-15T03:31:53.451Z,79.19
2023-01-15T03:36:55.757Z,79.23
2023-01-15T03:42:16.651Z,79.37
2023-01-15T03:47:40.131Z,79.58
2023-01-15T03:52:47.069Z,79.68
2023-01-15T03:57:53.296Z,79.57
2023-01-15T04:02:57.102Z,79.82
2023-01-15T04:08:02.183Z,80.04
2023-01-15T04:13:07.001Z,79.80
2023-01-15T04:18:09.312Z,80.02
2023-01-15T04:23:11.941Z,80.07
2023-01-15T04:28:14.262Z,80.11
2023-01-15T04:33:16.613Z,80.22
2023-01-15T04:38:18.877Z,80.35
2023-01-15T04:43:39.784Z,80.37
2023-01-15T04:48:42.849Z,80.31
2023-01-15T04:53:45.111Z,80.73
2023-01-15T04:58:47.407Z,80.62
2023-01-15T05:03:49.753Z,80.51
2023-01-15T05:08:52.874Z,80.77
2023-01-15T05:13:57.976Z,80.93
2023-01-15T05:19:05.032Z,80.71
2023-01-15T05:24:09.149Z,80.86
2023-01-15T05:29:12.294Z,80.85
2023-01-15T05:34:14.809Z,81.04
2023-01-15T05:39:17.424Z,80.96
2023-01-15T05:44:23.791Z,81.02
2023-01-15T05:49:27.954Z,81.01
2023-01-15T05:54:33.991Z,81.24
2023-01-15T05:59:36.203Z,81.03
2023-01-15T06:04:41.525Z,80.88
2023-01-15T06:09:44.086Z,81.24
2023-01-15T06:14:46.423Z,81.13
2023-01-15T06:19:48.785Z,81.10
2023-01-15T06:24:51.099Z,81.41
2023-01-15T06:29:59.255Z,81.30
2023-01-15T06:35:04.744Z,81.21
2023-01-15T06:40:10.108Z,80.97
2023-01-15T06:45:31.308Z,81.24
2023-01-15T06:50:33.609Z,81.43
2023-01-15T06:55:35.966Z,81.24
2023-01-15T07:00:38.777Z,81.16
2023-01-15T07:05:45.958Z,81.29
2023-01-15T07:10:48.415Z,81.18
2023-01-15T07:15:50.733Z,81.29
2023-01-15T07:20:59.599Z,81.42
2023-01-15T07:26:01.904Z,81.38
2023-01-15T07:31:04.220Z,81.15
2023-01-15T07:36:06.766Z,81.31
2023-01-15T07:41:27.400Z,81.01
2023-01-15T07:46:56.333Z,81.06
2023-01-15T07:51:59.058Z,81.23
2023-01-15T07:57:01.452Z,81.22
2023-01-15T08:02:04.311Z,80.99
2023-01-15T08:07:06.912Z,80.98
2023-01-15T08:12:29.016Z,81.01
2023-01-15T08:17:33.903Z,80.96
2023-01-15T08:22:37.501Z,80.79
2023-01-15T08:27:41.083Z,81.05
2023-01-15T08:32:43.808Z,80.85
2023-01-15T08:37:46.163Z,80.60
2023-01-15T08:42:48.433Z,80.61
2023-01-15T08:47:50.649Z,80.48
2023-01-15T08:52:52.924Z,80.61
2023-01-15T08:57:55.232Z,80.54
2023-01-15T09:02:58.170Z,80.60
2023-01-15T09:08:00.589Z,80.11
2023-01-15T09:13:03.860Z,80.25
2023-01-15T09:18:06.274Z,80.15
2023-01-15T09:23:08.571Z,80.21
2023-01-15T09:28:10.943Z,80.10
2023-01-15T09:33:13.277Z,79.80
2023-01-15T09:38:19.449Z,80.04
2023-01-15T09:43:53.655Z,80.06
2023-01-15T09:49:07.900Z,79.97
2023-01-15T09:54:19.145Z,79.89
2023-01-15T09:59:37.416Z,79.76
2023-01-15T10:04:45.994Z,79.64
2023-01-15T10:10:18.044Z,79.87
2023-01-15T10:15:33.546Z,79.57
2023-01-15T10:20:56.139Z,79.50
2023-01-15T10:26:16.806Z,79.67
2023-01-15T10:31:24.819Z,79.50
2023-01-15T10:36:58.963Z,79.37
2023-01-15T10:42:13.068Z,79.51
2023-01-15T10:47:19.739Z,79.19
2023-01-15T10:52:27.651Z,79.48
2023-01-15T10:57:45.418Z,79.27
2023-01-15T11:02:52.191Z,79.32
2023-01-15T11:08:26.428Z,79.36
2023-01-15T11:13:38.544Z,79.13
2023-01-15T11:19:02.739Z,79.16
2023-01-15T11:24:05.436Z,78.90
2023-01-15T11:29:28.852Z,79.08
2023-01-15T11:34:38.987Z,79.10
2023-01-15T11:39:43.366Z,78.81
2023-01-15T11:45:18.088Z,78.76
2023-01-15T11:50:39.687Z,78.84
2023-01-15T11:55:53.930Z,78.61
2023-01-15T12:00:58.570Z,78.72
2023-01-15T12:06:05.749Z,78.53
2023-01-15T12:11:46.575Z,78.59
2023-01-15T12:17:07.861Z,78.49
2023-01-15T12:22:42.366Z,78.22
2023-01-15T12:27:53.415Z,78.05
2023-01-15T12:33:17.143Z,78.01
2023-01-15T12:38:33.524Z,78.12
2023-01-15T12:43:54.263Z,78.04
2023-01-15T12:49:12.290Z,78.00
2023-01-15T12:54:16.721Z,77.84
2023-01-15T12:59:27.103Z,77.82
2023-01-15T13:04:49.399Z,77.58
2023-01-15T13:10:11.549Z,77.55
2023-01-15T13:15:17.970Z,77.72
2023-01-15T13:20:26.431Z,77.52
2023-01-15T13:25:43.872Z,77.31
2023-01-15T13:31:08.268Z,77.19
2023-01-15T13:36:19.414Z,77.39
2023-01-15T13:41:43.772Z,77.25
2023-01-15T13:46:48.095Z,77.02
2023-01-15T13:51:50.715Z,77.03
2023-01-15T13:56:53.193Z,77.23
2023-01-15T14:01:55.609Z,77.03
2023-01-15T14:07:00.923Z,76.84
2023-01-15T14:12:22.105Z,76.85
2023-01-15T14:17:46.126Z,77.03
2023-01-15T14:22:59.062Z,76.74
2023-01-15T14:28:27.009Z,76.43
2023-01-15T14:33:51.062Z,76.41
2023-01-15T14:38:57.428Z,76.50
2023-01-15T14:44:04.679Z,76.75
2023-01-15T14:49:28.997Z,76.32
2023-01-15T14:54:34.482Z,76.43
2023-01-15T14:59:36.775Z,76.32
2023-01-15T15:04:49.113Z,76.33
2023-01-15T15:10:11.456Z,76.36
2023-01-15T15:15:26.438Z,76.15
2023-01-15T15:20:49.030Z,76.39
2023-01-15T15:26:05.912Z,76.33
2023-01-15T15:31:09.911Z,76.31
2023-01-15T15:36:12.746Z,76.27
2023-01-15T15:41:15.185Z,76.12
2023-01-15T15:46:47.936Z,76.17
2023-01-15T15:51:52.465Z,76.12
2023-01-15T15:57:10.026Z,76.10
2023-01-15T16:02:18.711Z,76.19
2023-01-15T16:07:33.953Z,75.97
2023-01-15T16:12:44.207Z,75.97
2023-01-15T16:17:50.416Z,76.05
2023-01-15T16:23:05.537Z,75.72
2023-01-15T16:28:27.000Z,75.69
2023-01-15T16:33:32.275Z,75.77
2023-01-15T16:38:37.161Z,75.86
2023-01-15T16:44:14.936Z,75.63
2023-01-15T16:49:27.602Z,75.68
2023-01-15T16:54:30.194Z,75.84
2023-01-15T16:59:32.585Z,75.77
2023-01-15T17:04:37.720Z,75.54
2023-01-15T17:09:46.140Z,75.48
2023-01-15T17:14:48.448Z,75.72
2023-01-15T17:19:51.983Z,75.56
2023-01-15T17:24:56.707Z,75.61
2023-01-15T17:30:05.684Z,75.60
2023-01-15T17:35:23.273Z,75.39
2023-01-15T17:40:26.331Z,75.66
2023-01-15T17:45:30.749Z,75.54
2023-01-15T17:50:34.286Z,75.67
2023-01-15T17:55:55.145Z,75.51
2023-01-15T18:01:16.517Z,75.26
2023-01-15T18:06:24.894Z,75.10
2023-01-15T18:11:27.307Z,75.34
2023-01-15T18:16:30.476Z,75.33
2023-01-15T18:21:35.946Z,75.18
2023-01-15T18:26:39.997Z,75.23
2023-01-15T18:31:42.434Z,75.21
2023-01-15T18:36:44.941Z,75.28
2023-01-15T18:41:47.216Z,75.16
2023-01-15T18:46:52.846Z,74.97
2023-01-15T18:52:13.648Z,75.10
2023-01-15T18:57:16.917Z,75.25
2023-01-15T19:02:22.575Z,75.32
2023-01-15T19:07:25.000Z,75.17
2023-01-15T19:12:32.241Z,75.06
2023-01-15T19:17:54.374Z,75.07
2023-01-15T19:23:05.432Z,74.99
2023-01-15T19:28:11.217Z,75.02
2023-01-15T19:33:13.904Z,74.93
2023-01-15T19:38:16.862Z,75.13
2023-01-15T19:43:37.637Z,75.02
2023-01-15T19:48:59.444Z,74.89
2023-01-15T19:54:04.408Z,74.88
2023-01-15T19:59:09.907Z,74.82
2023-01-15T20:04:12.378Z,74.73
2023-01-15T20:09:15.318Z,74.90
2023-01-15T20:14:17.618Z,74.82
2023-01-15T20:19:19.967Z,74.81
2023-01-15T20:24:23.281Z,75.00
2023-01-15T20:29:25.711Z,74.94
2023-01-15T20:34:31.083Z,74.51
2023-01-15T20:39:33.455Z,74.93
2023-01-15T20:44:53.809Z,74.79
2023-01-15T20:49:56.112Z,74.98
2023-01-15T20:54:58.789Z,75.05
2023-01-15T21:00:01.378Z,74.96
2023-01-15T21:05:08.111Z,74.96
2023-01-15T21:10:12.321Z,74.87
2023-01-15T21:15:15.356Z,74.86
2023-01-15T21:20:17.941Z,74.95
2023-01-15T21:25:20.256Z,74.97
2023-01-15T21:30:25.948Z,74.87
2023-01-15T21:35:28.593Z,74.81
2023-01-15T21:40:30.855Z,74.85
2023-01-15T21:45:33.261Z,74.94
2023-01-15T21:50:37.597Z,74.87
2023-01-15T21:55:39.906Z,75.01
2023-01-15T22:00:43.311Z,74.72
2023-01-15T22:05:45.962Z,74.91
2023-01-15T22:10:48.334Z,74.96
2023-01-15T22:15:55.137Z,74.93
2023-01-15T22:21:02.422Z,74.83
2023-01-15T22:26:04.957Z,75.07
2023-01-15T22:31:07.526Z,74.85
2023-01-15T22:36:13.288Z,74.94
2023-01-15T22:41:15.564Z,75.13
2023-01-15T22:46:17.863Z,75.02
2023-01-15T22:51:20.174Z,74.95
2023-01-15T22:56:22.679Z,74.72
2023-01-15T23:01:25.071Z,75.08
2023-01-15T23:06:28.946Z,74.95
2023-01-15T23:11:31.288Z,75.01
2023-01-15T23:16:33.653Z,74.76
2023-01-15T23:21:36.150Z,75.08
2023-01-15T23:26:38.643Z,75.18
2023-01-15T23:31:41.070Z,75.06
2023-01-15T23:36:43.497Z,75.13
2023-01-15T23:42:04.316Z,75.16
2023-01-15T23:47:07.971Z,75.20
2023-01-15T23:52:10.448Z,75.14
2023-01-15T23:57:12.785Z,75.07
